createdAt,value
2019-02-27T00:00:37.426Z,6.40
2019-02-27T00:01:37.610Z,6.20
2019-02-27T00:02:37.805Z,6.30
2019-02-27T00:03:37.979Z,6.40
2019-02-27T00:04:38.165Z,6.50
2019-02-27T00:05:38.854Z,6.70
2019-02-27T00:06:38.531Z,5.40
2019-02-27T00:07:39.568Z,6.20
2019-02-27T00:08:38.912Z,6.30
2019-02-27T00:09:39.097Z,6.40
2019-02-27T00:10:39.879Z,6.10
2019-02-27T00:11:39.488Z,6.30
2019-02-27T00:12:39.669Z,6.00
2019-02-27T00:13:39.851Z,6.00
2019-02-27T00:14:40.034Z,5.90
2019-02-27T00:15:40.221Z,6.30
2019-02-27T00:19:23.261Z,6.10
2019-02-27T00:20:23.440Z,6.20
2019-02-27T00:21:23.618Z,6.20
2019-02-27T00:22:23.798Z,5.90
2019-02-27T00:23:24.614Z,5.70
2019-02-27T00:24:24.160Z,6.90
2019-02-27T00:25:24.347Z,6.30
2019-02-27T00:26:24.532Z,6.30
2019-02-27T00:27:24.708Z,6.30
2019-02-27T00:28:24.889Z,6.40
2019-02-27T00:29:28.836Z,6.00
2019-02-27T00:30:25.251Z,6.60
2019-02-27T00:31:25.436Z,6.30
2019-02-27T00:32:25.616Z,6.70
2019-02-27T00:33:28.450Z,6.90
2019-02-27T00:34:25.983Z,5.90
2019-02-27T00:35:26.169Z,5.90
2019-02-27T00:36:26.357Z,6.40
2019-02-27T00:37:26.536Z,6.80
2019-02-27T00:38:26.718Z,6.60
2019-02-27T00:39:31.062Z,7.10
2019-02-27T00:40:27.074Z,6.70
2019-02-27T00:41:27.261Z,7.40
2019-02-27T00:42:33.529Z,6.60
2019-02-27T00:43:28.460Z,6.70
2019-02-27T00:44:27.796Z,6.90
2019-02-27T00:45:27.979Z,6.10
2019-02-27T00:46:28.156Z,6.30
2019-02-27T00:47:28.335Z,6.80
2019-02-27T00:48:28.524Z,6.80
2019-02-27T00:49:29.859Z,6.90
2019-02-27T00:50:28.875Z,6.30
2019-02-27T00:51:29.060Z,6.00
2019-02-27T00:52:29.241Z,7.30
2019-02-27T00:53:29.431Z,6.90
2019-02-27T00:54:31.501Z,6.80
2019-02-27T00:55:29.792Z,6.90
2019-02-27T00:56:29.993Z,7.10
2019-02-27T00:57:30.149Z,6.80
2019-02-27T00:58:30.334Z,5.70
2019-02-27T00:59:32.901Z,6.50
2019-02-27T01:00:30.695Z,6.80
2019-02-27T01:01:30.870Z,6.10
2019-02-27T01:02:31.053Z,6.50
2019-02-27T01:03:31.236Z,6.90
2019-02-27T01:04:34.955Z,6.70
2019-02-27T01:05:31.598Z,6.60
2019-02-27T01:06:31.776Z,6.70
2019-02-27T01:07:31.959Z,7.20
2019-02-27T01:08:32.149Z,6.60
2019-02-27T01:09:32.324Z,6.30
2019-02-27T01:10:32.517Z,7.20
2019-02-27T01:11:32.702Z,7.10
2019-02-27T01:12:32.879Z,6.80
2019-02-27T01:13:33.063Z,7.00
2019-02-27T01:14:36.945Z,7.20
2019-02-27T01:15:33.427Z,6.90
2019-02-27T01:16:33.603Z,7.60
2019-02-27T01:17:33.787Z,7.00
2019-02-27T01:18:33.966Z,6.80
2019-02-27T01:19:38.522Z,6.50
2019-02-27T01:20:34.335Z,7.20
2019-02-27T01:21:34.514Z,6.70
2019-02-27T01:22:34.704Z,7.20
2019-02-27T01:23:34.884Z,7.20
2019-02-27T01:24:35.072Z,6.90
2019-02-27T01:25:35.248Z,7.20
2019-02-27T01:26:35.430Z,7.40
2019-02-27T01:27:37.929Z,7.10
2019-02-27T01:28:35.799Z,7.00
2019-02-27T01:29:35.975Z,7.10
2019-02-27T01:30:36.156Z,7.10
2019-02-27T01:31:36.335Z,7.30
2019-02-27T01:32:36.523Z,7.30
2019-02-27T01:33:38.243Z,7.10
2019-02-27T01:34:36.876Z,6.90
2019-02-27T01:35:37.052Z,6.80
2019-02-27T01:36:37.233Z,7.40
2019-02-27T01:37:37.415Z,7.00
2019-02-27T01:38:38.136Z,6.60
2019-02-27T01:39:37.767Z,6.90
2019-02-27T01:40:37.952Z,6.80
2019-02-27T01:41:38.132Z,6.60
2019-02-27T01:42:38.310Z,6.30
2019-02-27T01:43:39.874Z,7.00
2019-02-27T01:44:38.670Z,6.50
2019-02-27T01:45:38.854Z,6.80
2019-02-27T01:46:39.029Z,6.40
2019-02-27T01:47:39.212Z,6.80
2019-02-27T01:48:42.699Z,6.70
2019-02-27T01:49:39.568Z,6.90
2019-02-27T01:50:39.749Z,6.50
2019-02-27T01:51:39.927Z,6.90
2019-02-27T01:52:40.126Z,6.90
2019-02-27T01:53:40.683Z,6.60
2019-02-27T01:54:40.469Z,6.30
2019-02-27T01:55:40.649Z,7.10
2019-02-27T01:56:40.824Z,6.80
2019-02-27T01:57:41.006Z,7.20
2019-02-27T01:58:43.635Z,6.70
2019-02-27T01:59:41.367Z,6.20
2019-02-27T02:00:41.550Z,7.50
2019-02-27T02:01:41.722Z,7.00
2019-02-27T02:02:41.902Z,7.10
2019-02-27T02:03:42.081Z,6.80
2019-02-27T02:04:42.264Z,7.50
2019-02-27T02:05:42.443Z,7.10
2019-02-27T02:06:42.619Z,7.50
2019-02-27T02:07:42.797Z,7.30
2019-02-27T02:08:42.971Z,7.50
2019-02-27T02:09:43.159Z,7.70
2019-02-27T02:10:43.349Z,8.10
2019-02-27T02:11:43.513Z,7.50
2019-02-27T02:12:43.688Z,7.30
2019-02-27T02:13:48.006Z,7.60
2019-02-27T02:14:44.058Z,6.90
2019-02-27T02:15:44.239Z,7.30
2019-02-27T02:16:44.416Z,8.00
2019-02-27T02:17:44.595Z,7.30
2019-02-27T02:18:45.784Z,7.10
2019-02-27T02:19:44.952Z,7.60
2019-02-27T02:20:45.129Z,7.00
2019-02-27T02:21:45.305Z,7.30
2019-02-27T02:22:45.491Z,7.40
2019-02-27T02:23:47.942Z,7.10
2019-02-27T02:24:45.870Z,6.90
2019-02-27T02:25:46.046Z,7.00
2019-02-27T02:26:46.229Z,7.00
2019-02-27T02:27:46.407Z,6.60
2019-02-27T02:28:48.318Z,7.40
2019-02-27T02:29:46.786Z,6.80
2019-02-27T02:30:46.951Z,6.40
2019-02-27T02:31:47.140Z,6.80
2019-02-27T02:32:52.028Z,6.80
2019-02-27T02:33:47.489Z,6.60
2019-02-27T02:34:47.668Z,6.60
2019-02-27T02:35:50.669Z,6.10
2019-02-27T02:36:48.021Z,6.90
2019-02-27T02:37:48.205Z,7.00
2019-02-27T02:38:48.411Z,6.70
2019-02-27T02:39:54.181Z,6.50
2019-02-27T02:40:48.767Z,6.60
2019-02-27T02:41:48.952Z,5.90
2019-02-27T02:42:49.129Z,6.30
2019-02-27T02:43:49.303Z,6.20
2019-02-27T02:44:49.487Z,6.30
2019-02-27T02:45:49.666Z,6.50
2019-02-27T02:46:49.840Z,5.70
2019-02-27T02:47:55.519Z,6.30
2019-02-27T02:48:50.209Z,6.40
2019-02-27T02:49:50.394Z,6.30
2019-02-27T02:50:53.923Z,6.50
2019-02-27T02:51:50.754Z,5.60
2019-02-27T02:52:50.933Z,6.40
2019-02-27T02:53:51.111Z,6.50
2019-02-27T02:54:51.288Z,6.60
2019-02-27T02:55:51.474Z,6.20
2019-02-27T02:56:51.642Z,6.80
2019-02-27T02:57:51.823Z,5.70
2019-02-27T02:58:52.012Z,6.00
2019-02-27T02:59:52.182Z,6.10
2019-02-27T03:00:52.363Z,5.90
2019-02-27T03:01:52.547Z,6.10
2019-02-27T03:02:52.721Z,6.60
2019-02-27T03:03:52.897Z,7.10
2019-02-27T03:04:53.074Z,6.00
2019-02-27T03:05:58.560Z,6.80
2019-02-27T03:06:53.452Z,6.10
2019-02-27T03:07:53.629Z,6.20
2019-02-27T03:08:55.284Z,6.20
2019-02-27T03:09:53.989Z,5.70
2019-02-27T03:10:54.175Z,6.50
2019-02-27T03:11:55.651Z,5.60
2019-02-27T03:12:54.531Z,6.30
2019-02-27T03:13:54.695Z,6.70
2019-02-27T03:14:54.908Z,6.20
2019-02-27T03:15:55.085Z,6.70
2019-02-27T03:16:55.255Z,6.70
2019-02-27T03:17:55.438Z,6.50
2019-02-27T03:18:55.620Z,6.00
2019-02-27T03:19:55.792Z,6.70
2019-02-27T03:20:55.985Z,5.60
2019-02-27T03:21:56.171Z,6.40
2019-02-27T03:22:56.350Z,6.20
2019-02-27T03:23:56.520Z,6.20
2019-02-27T03:24:56.704Z,6.70
2019-02-27T03:25:56.885Z,6.50
2019-02-27T03:26:57.065Z,5.80
2019-02-27T03:27:57.235Z,6.30
2019-02-27T03:28:57.469Z,6.40
2019-02-27T03:29:57.605Z,6.00
2019-02-27T03:30:57.785Z,6.40
2019-02-27T03:32:00.611Z,5.90
2019-02-27T03:32:58.157Z,6.00
2019-02-27T03:34:05.166Z,6.10
2019-02-27T03:34:58.522Z,6.20
2019-02-27T03:35:59.950Z,6.70
2019-02-27T03:36:58.879Z,5.70
2019-02-27T03:37:59.058Z,6.00
2019-02-27T03:39:00.214Z,6.60
2019-02-27T03:39:59.417Z,6.20
2019-02-27T03:40:59.594Z,6.50
2019-02-27T03:41:59.784Z,6.00
2019-02-27T03:42:59.951Z,6.40
2019-02-27T03:44:00.165Z,5.90
2019-02-27T03:45:00.507Z,6.30
2019-02-27T03:46:03.057Z,6.20
2019-02-27T03:47:00.684Z,6.00
2019-02-27T03:48:00.838Z,6.40
2019-02-27T03:49:03.830Z,6.60
2019-02-27T03:50:01.228Z,6.00
2019-02-27T03:51:01.380Z,6.60
2019-02-27T03:52:01.562Z,6.30
2019-02-27T03:53:01.765Z,6.00
2019-02-27T03:54:01.930Z,6.50
2019-02-27T03:55:02.119Z,5.80
2019-02-27T03:56:08.774Z,6.10
2019-02-27T03:57:02.459Z,6.10
2019-02-27T03:58:02.646Z,6.60
2019-02-27T03:59:06.330Z,6.10
2019-02-27T04:00:03.021Z,6.50
2019-02-27T04:01:03.196Z,6.20
2019-02-27T04:02:06.181Z,6.60
2019-02-27T04:03:03.571Z,5.70
2019-02-27T04:04:03.751Z,6.10
2019-02-27T04:05:07.164Z,6.20
2019-02-27T04:06:04.105Z,6.70
2019-02-27T04:07:04.278Z,6.30
2019-02-27T04:08:08.333Z,6.80
2019-02-27T04:09:04.636Z,6.50
2019-02-27T04:10:04.816Z,6.90
2019-02-27T04:11:05.861Z,6.50
2019-02-27T04:12:05.174Z,6.20
2019-02-27T04:13:05.350Z,6.00
2019-02-27T04:14:05.697Z,6.40
2019-02-27T04:15:05.708Z,5.90
2019-02-27T04:16:05.888Z,6.30
2019-02-27T04:17:07.465Z,6.90
2019-02-27T04:18:06.251Z,6.20
2019-02-27T04:19:06.438Z,6.30
2019-02-27T04:20:06.617Z,6.30
2019-02-27T04:21:06.804Z,6.70
2019-02-27T04:22:06.975Z,6.70
2019-02-27T04:23:11.174Z,6.40
2019-02-27T04:24:07.332Z,6.30
2019-02-27T04:25:07.517Z,5.90
2019-02-27T04:26:07.697Z,6.50
2019-02-27T04:27:07.875Z,6.80
2019-02-27T04:28:08.055Z,6.30
2019-02-27T04:29:08.603Z,6.60
2019-02-27T04:30:08.415Z,6.60
2019-02-27T04:31:08.586Z,6.30
2019-02-27T04:32:09.571Z,6.50
2019-02-27T04:33:08.949Z,6.60
2019-02-27T04:34:09.144Z,6.10
2019-02-27T04:35:09.300Z,6.50
2019-02-27T04:36:12.424Z,6.50
2019-02-27T04:37:09.677Z,6.30
2019-02-27T04:38:09.848Z,6.50
2019-02-27T04:39:10.033Z,6.60
2019-02-27T04:40:11.207Z,6.40
2019-02-27T04:41:10.395Z,6.60
2019-02-27T04:42:10.569Z,6.30
2019-02-27T04:43:10.746Z,6.50
2019-02-27T04:44:10.921Z,6.60
2019-02-27T04:45:12.431Z,8.90
2019-02-27T04:46:11.280Z,8.80
2019-02-27T04:47:11.459Z,8.30
2019-02-27T04:48:11.646Z,8.10
2019-02-27T04:49:11.832Z,7.80
2019-02-27T04:50:12.026Z,7.30
2019-02-27T04:51:14.665Z,7.40
2019-02-27T04:52:12.379Z,7.10
2019-02-27T04:53:12.562Z,7.40
2019-02-27T04:54:12.724Z,6.70
2019-02-27T04:55:13.104Z,6.70
2019-02-27T04:56:13.107Z,6.80
2019-02-27T04:57:13.284Z,7.40
2019-02-27T04:58:13.463Z,7.10
2019-02-27T04:59:18.394Z,6.80
2019-02-27T05:00:13.826Z,6.70
2019-02-27T05:01:14.005Z,7.30
2019-02-27T05:02:14.571Z,7.30
2019-02-27T05:03:14.365Z,7.60
2019-02-27T05:04:14.543Z,7.40
2019-02-27T05:05:14.716Z,6.50
2019-02-27T05:06:15.277Z,6.70
2019-02-27T05:07:15.078Z,7.10
2019-02-27T05:08:15.265Z,7.10
2019-02-27T05:09:15.444Z,7.40
2019-02-27T05:10:15.621Z,7.00
2019-02-27T05:11:15.800Z,6.60
2019-02-27T05:12:16.507Z,7.00
2019-02-27T05:13:16.157Z,7.40
2019-02-27T05:14:16.339Z,7.20
2019-02-27T05:15:16.520Z,7.40
2019-02-27T05:16:16.697Z,8.10
2019-02-27T05:17:21.197Z,7.50
2019-02-27T05:18:17.050Z,8.10
2019-02-27T05:19:17.229Z,7.40
2019-02-27T05:20:17.407Z,7.40
2019-02-27T05:21:19.285Z,7.00
2019-02-27T05:22:17.763Z,7.50
2019-02-27T05:23:17.943Z,6.90
2019-02-27T05:24:18.129Z,6.70
2019-02-27T05:25:18.293Z,7.10
2019-02-27T05:26:18.474Z,6.90
2019-02-27T05:27:18.654Z,7.10
2019-02-27T05:28:18.833Z,6.40
2019-02-27T05:29:19.011Z,6.50
2019-02-27T05:30:19.185Z,6.60
2019-02-27T05:31:19.368Z,7.40
2019-02-27T05:32:19.542Z,7.50
2019-02-27T05:33:19.727Z,7.60
2019-02-27T05:34:19.905Z,7.20
2019-02-27T05:35:23.597Z,7.20
2019-02-27T05:36:20.263Z,6.30
2019-02-27T05:37:20.451Z,6.60
2019-02-27T05:38:20.629Z,6.80
2019-02-27T05:39:20.806Z,6.80
2019-02-27T05:40:23.076Z,6.60
2019-02-27T05:41:21.164Z,6.30
2019-02-27T05:42:21.340Z,6.60
2019-02-27T05:43:21.853Z,6.90
2019-02-27T05:44:22.324Z,6.90
2019-02-27T05:45:21.831Z,7.10
2019-02-27T05:46:22.009Z,7.20
2019-02-27T05:47:22.188Z,7.60
2019-02-27T05:48:22.375Z,7.50
2019-02-27T05:49:26.667Z,9.10
2019-02-27T05:50:22.738Z,7.60
2019-02-27T05:51:22.915Z,7.00
2019-02-27T05:52:23.093Z,7.00
2019-02-27T05:53:23.270Z,7.10
2019-02-27T05:54:23.450Z,7.40
2019-02-27T05:55:23.630Z,7.00
2019-02-27T05:56:23.807Z,7.30
2019-02-27T05:57:23.980Z,7.30
2019-02-27T05:58:24.159Z,7.00
2019-02-27T05:59:24.354Z,6.70
2019-02-27T06:00:24.539Z,6.70
2019-02-27T06:01:24.719Z,6.50
2019-02-27T06:02:25.563Z,6.60
2019-02-27T06:03:25.091Z,6.10
2019-02-27T06:04:25.710Z,6.70
2019-02-27T06:05:25.448Z,6.60
2019-02-27T06:06:25.630Z,7.20
2019-02-27T06:07:25.819Z,6.70
2019-02-27T06:08:25.988Z,7.10
2019-02-27T06:09:26.166Z,6.70
2019-02-27T06:10:26.346Z,6.70
2019-02-27T06:11:27.081Z,7.00
2019-02-27T06:12:26.701Z,6.60
2019-02-27T06:13:26.889Z,6.80
2019-02-27T06:14:27.054Z,7.10
2019-02-27T06:15:28.582Z,6.90
2019-02-27T06:16:27.423Z,6.90
2019-02-27T06:17:27.620Z,6.60
2019-02-27T06:18:27.784Z,6.20
2019-02-27T06:19:30.626Z,6.60
2019-02-27T06:20:28.144Z,6.30
2019-02-27T06:21:28.316Z,6.70
2019-02-27T06:22:30.394Z,7.60
2019-02-27T06:23:28.674Z,11.50
2019-02-27T06:24:28.865Z,16.70
2019-02-27T06:25:29.050Z,15.30
2019-02-27T06:26:32.216Z,14.40
2019-02-27T06:27:29.405Z,11.50
2019-02-27T06:28:29.580Z,9.20
2019-02-27T06:29:29.760Z,8.10
2019-02-27T06:30:30.759Z,6.50
2019-02-27T06:31:30.075Z,7.00
2019-02-27T06:32:30.246Z,7.00
2019-02-27T06:33:30.464Z,6.30
2019-02-27T06:34:30.623Z,7.00
2019-02-27T06:35:33.460Z,6.80
2019-02-27T06:36:30.977Z,6.80
2019-02-27T06:37:31.155Z,7.40
2019-02-27T06:38:31.331Z,8.10
2019-02-27T06:39:34.176Z,8.00
2019-02-27T06:40:31.734Z,7.70
2019-02-27T06:41:31.916Z,7.20
2019-02-27T06:42:32.155Z,7.10
2019-02-27T06:43:32.285Z,9.80
2019-02-27T06:44:32.455Z,7.70
2019-02-27T06:45:32.632Z,6.70
2019-02-27T06:46:32.813Z,7.40
2019-02-27T06:47:35.443Z,7.80
2019-02-27T06:48:33.187Z,7.50
2019-02-27T06:49:33.348Z,7.20
2019-02-27T06:50:33.526Z,6.50
2019-02-27T06:51:35.770Z,6.30
2019-02-27T06:52:33.879Z,6.20
2019-02-27T06:53:34.058Z,6.90
2019-02-27T06:54:34.240Z,7.00
2019-02-27T06:55:34.419Z,6.30
2019-02-27T06:56:34.596Z,6.40
2019-02-27T06:57:34.777Z,6.20
2019-02-27T06:58:34.956Z,6.70
2019-02-27T06:59:35.134Z,6.70
2019-02-27T07:00:36.742Z,6.50
2019-02-27T07:01:35.487Z,6.30
2019-02-27T07:02:35.669Z,6.60
2019-02-27T07:03:35.848Z,6.50
2019-02-27T07:04:36.488Z,6.60
2019-02-27T07:05:36.217Z,6.40
2019-02-27T07:06:36.940Z,6.80
2019-02-27T07:07:36.594Z,6.20
2019-02-27T07:08:38.159Z,6.60
2019-02-27T07:09:36.948Z,6.60
2019-02-27T07:10:37.139Z,6.60
2019-02-27T07:11:37.376Z,6.60
2019-02-27T07:12:37.513Z,6.50
2019-02-27T07:13:37.699Z,6.60
2019-02-27T07:14:39.079Z,6.70
2019-02-27T07:15:38.065Z,6.60
2019-02-27T07:16:38.256Z,6.40
2019-02-27T07:17:38.447Z,6.80
2019-02-27T07:18:41.508Z,7.50
2019-02-27T07:19:38.846Z,7.40
2019-02-27T07:20:39.015Z,7.60
2019-02-27T07:21:39.196Z,7.30
2019-02-27T07:22:39.389Z,7.40
2019-02-27T07:23:39.587Z,7.20
2019-02-27T07:24:39.773Z,7.90
2019-02-27T07:25:42.265Z,8.40
2019-02-27T07:26:40.202Z,8.00
2019-02-27T07:27:40.401Z,8.20
2019-02-27T07:28:43.171Z,8.90
2019-02-27T07:29:42.760Z,9.60
2019-02-27T07:30:42.634Z,8.90
2019-02-27T07:31:41.172Z,8.50
2019-02-27T07:32:41.357Z,8.40
2019-02-27T07:33:41.549Z,7.50
2019-02-27T07:34:41.739Z,7.40
2019-02-27T07:35:41.932Z,7.50
2019-02-27T07:36:42.128Z,8.10
2019-02-27T07:37:47.195Z,7.90
2019-02-27T07:38:42.513Z,7.80
2019-02-27T07:39:42.698Z,7.80
2019-02-27T07:40:43.533Z,7.50
2019-02-27T07:41:43.083Z,8.10
2019-02-27T07:42:43.269Z,8.10
2019-02-27T07:43:43.487Z,8.20
2019-02-27T07:44:43.684Z,7.80
2019-02-27T07:45:45.433Z,8.90
2019-02-27T07:46:44.073Z,8.80
2019-02-27T07:47:44.266Z,8.20
2019-02-27T07:48:44.460Z,8.10
2019-02-27T07:49:44.644Z,7.40
2019-02-27T07:52:32.231Z,8.30
2019-02-27T07:53:27.750Z,7.20
2019-02-27T07:54:28.999Z,6.90
2019-02-27T07:55:28.557Z,7.40
2019-02-27T07:56:28.417Z,7.40
2019-02-27T07:57:28.490Z,7.20
2019-02-27T07:58:29.267Z,7.20
2019-02-27T07:59:28.885Z,7.00
2019-02-27T08:00:29.082Z,7.20
2019-02-27T08:01:29.277Z,7.40
2019-02-27T08:02:29.471Z,6.50
2019-02-27T08:03:29.661Z,7.30
2019-02-27T08:04:29.859Z,7.20
2019-02-27T08:05:30.050Z,7.00
2019-02-27T08:06:30.244Z,7.30
2019-02-27T08:07:30.440Z,7.30
2019-02-27T08:08:30.636Z,7.50
2019-02-27T08:09:30.829Z,7.20
2019-02-27T08:10:31.033Z,7.30
2019-02-27T08:11:31.226Z,6.80
2019-02-27T08:12:31.427Z,7.60
2019-02-27T08:13:31.622Z,6.90
2019-02-27T08:14:31.819Z,7.60
2019-02-27T08:15:32.012Z,7.20
2019-02-27T08:16:32.205Z,7.70
2019-02-27T08:17:32.397Z,6.80
2019-02-27T08:18:36.684Z,8.90
2019-02-27T08:19:32.785Z,9.60
2019-02-27T08:20:32.983Z,9.70
2019-02-27T08:21:33.177Z,9.00
2019-02-27T08:22:33.375Z,8.70
2019-02-27T08:23:33.570Z,9.00
2019-02-27T08:24:33.830Z,9.50
2019-02-27T08:25:33.965Z,8.50
2019-02-27T08:26:36.453Z,9.20
2019-02-27T08:27:34.370Z,8.20
2019-02-27T08:28:34.570Z,8.40
2019-02-27T08:29:34.759Z,8.30
2019-02-27T08:30:34.962Z,8.30
2019-02-27T08:31:35.177Z,7.80
2019-02-27T08:32:35.375Z,8.00
2019-02-27T08:33:35.573Z,7.90
2019-02-27T08:34:35.779Z,7.60
2019-02-27T08:35:35.962Z,7.80
2019-02-27T08:36:36.161Z,7.40
2019-02-27T08:37:36.351Z,6.80
2019-02-27T08:38:36.552Z,8.00
2019-02-27T08:39:36.742Z,7.80
2019-02-27T08:40:36.939Z,7.70
2019-02-27T08:41:37.131Z,8.40
2019-02-27T08:42:40.374Z,7.30
2019-02-27T08:43:37.516Z,6.80
2019-02-27T08:44:37.714Z,7.20
2019-02-27T08:45:37.923Z,7.50
2019-02-27T08:46:38.115Z,7.20
2019-02-27T08:47:40.820Z,7.40
2019-02-27T08:48:38.508Z,7.00
2019-02-27T08:49:38.705Z,7.30
2019-02-27T08:50:38.899Z,7.20
2019-02-27T08:51:39.771Z,6.90
2019-02-27T08:52:39.292Z,7.50
2019-02-27T08:53:39.499Z,6.20
2019-02-27T08:54:39.698Z,6.30
2019-02-27T08:55:39.899Z,7.20
2019-02-27T08:56:40.087Z,6.80
2019-02-27T08:57:40.288Z,6.80
2019-02-27T08:58:40.482Z,6.60
2019-02-27T08:59:40.763Z,6.40
2019-02-27T09:00:40.888Z,6.90
2019-02-27T09:01:41.085Z,6.80
2019-02-27T09:02:41.286Z,7.30
2019-02-27T09:03:41.486Z,6.70
2019-02-27T09:04:42.839Z,6.70
2019-02-27T09:05:41.879Z,6.20
2019-02-27T09:06:42.071Z,7.00
2019-02-27T09:07:43.097Z,6.50
2019-02-27T09:08:44.074Z,6.80
2019-02-27T09:09:42.666Z,6.70
2019-02-27T09:10:42.862Z,6.80
2019-02-27T09:11:43.060Z,6.70
2019-02-27T09:12:45.301Z,6.50
2019-02-27T09:13:43.459Z,7.20
2019-02-27T09:14:43.656Z,6.80
2019-02-27T09:15:43.859Z,6.70
2019-02-27T09:16:44.076Z,7.10
2019-02-27T09:17:44.266Z,6.40
2019-02-27T09:18:44.498Z,6.80
2019-02-27T09:19:45.680Z,6.50
2019-02-27T09:20:44.905Z,6.40
2019-02-27T09:21:45.150Z,6.80
2019-02-27T09:22:45.314Z,6.70
2019-02-27T09:23:45.511Z,6.60
2019-02-27T09:24:45.709Z,6.70
2019-02-27T09:25:45.911Z,6.70
2019-02-27T09:26:46.106Z,7.20
2019-02-27T09:27:46.313Z,7.10
2019-02-27T09:28:46.500Z,6.60
2019-02-27T09:29:46.700Z,6.80
2019-02-27T09:30:46.899Z,7.10
2019-02-27T09:31:50.814Z,6.60
2019-02-27T09:32:47.309Z,6.20
2019-02-27T09:33:47.504Z,6.10
2019-02-27T09:34:47.703Z,7.00
2019-02-27T09:35:47.900Z,6.30
2019-02-27T09:36:49.158Z,7.10
2019-02-27T09:37:51.130Z,6.60
2019-02-27T09:38:48.505Z,7.20
2019-02-27T09:39:48.703Z,7.50
2019-02-27T09:40:48.905Z,7.10
2019-02-27T09:41:51.138Z,6.30
2019-02-27T09:42:50.167Z,6.40
2019-02-27T09:43:49.516Z,6.40
2019-02-27T09:44:49.714Z,6.70
2019-02-27T09:45:49.915Z,6.00
2019-02-27T09:46:52.388Z,6.30
2019-02-27T09:47:50.312Z,6.00
2019-02-27T09:48:50.508Z,6.10
2019-02-27T09:49:50.725Z,7.10
2019-02-27T09:50:50.926Z,6.60
2019-02-27T09:51:55.857Z,6.60
2019-02-27T09:52:51.322Z,6.20
2019-02-27T09:53:51.531Z,6.30
2019-02-27T09:54:51.728Z,6.00
2019-02-27T09:55:54.372Z,6.30
2019-02-27T09:56:52.132Z,5.90
2019-02-27T09:57:52.326Z,6.60
2019-02-27T09:58:52.526Z,6.00
2019-02-27T09:59:53.649Z,6.60
2019-02-27T10:00:52.920Z,6.60
2019-02-27T10:01:53.133Z,6.40
2019-02-27T10:02:53.326Z,5.80
2019-02-27T10:03:55.295Z,5.60
2019-02-27T10:04:53.746Z,6.10
2019-02-27T10:05:53.944Z,6.40
2019-02-27T10:06:54.147Z,6.10
2019-02-27T10:07:54.359Z,6.30
2019-02-27T10:08:56.493Z,6.20
2019-02-27T10:09:54.759Z,6.10
2019-02-27T10:10:54.958Z,5.70
2019-02-27T10:11:55.166Z,6.00
2019-02-27T10:12:55.375Z,5.80
2019-02-27T10:13:55.569Z,6.30
2019-02-27T10:14:55.765Z,6.10
2019-02-27T10:15:58.060Z,6.00
2019-02-27T10:16:56.180Z,6.20
2019-02-27T10:17:56.378Z,6.40
2019-02-27T10:18:56.583Z,6.10
2019-02-27T10:20:01.290Z,6.00
2019-02-27T10:20:56.989Z,6.30
2019-02-27T10:21:57.184Z,6.70
2019-02-27T10:22:57.385Z,5.80
2019-02-27T10:23:57.587Z,6.00
2019-02-27T10:24:57.785Z,6.10
2019-02-27T10:25:57.996Z,6.70
2019-02-27T10:26:58.191Z,6.50
2019-02-27T10:28:03.425Z,6.70
2019-02-27T10:28:58.604Z,6.20
2019-02-27T10:29:58.818Z,6.50
2019-02-27T10:30:59.018Z,6.60
2019-02-27T10:32:00.769Z,6.00
2019-02-27T10:32:59.415Z,6.80
2019-02-27T10:34:00.466Z,7.00
2019-02-27T10:34:59.835Z,6.90
2019-02-27T10:36:03.329Z,6.40
2019-02-27T10:37:00.317Z,6.50
2019-02-27T10:38:00.437Z,6.30
2019-02-27T10:39:02.066Z,7.10
2019-02-27T10:40:00.833Z,7.10
2019-02-27T10:41:01.038Z,7.00
2019-02-27T10:42:01.239Z,7.00
2019-02-27T10:43:01.439Z,7.50
2019-02-27T10:44:01.641Z,7.20
2019-02-27T10:45:01.833Z,7.30
2019-02-27T10:46:02.043Z,7.60
2019-02-27T10:47:02.252Z,7.10
2019-02-27T10:48:02.448Z,7.40
2019-02-27T10:49:02.648Z,7.40
2019-02-27T10:50:03.140Z,7.50
2019-02-27T10:51:03.047Z,8.00
2019-02-27T10:52:03.241Z,8.10
2019-02-27T10:53:03.447Z,7.70
2019-02-27T10:54:05.410Z,7.80
2019-02-27T10:55:03.847Z,7.80
2019-02-27T10:56:04.129Z,7.40
2019-02-27T10:57:05.907Z,7.40
2019-02-27T10:58:04.401Z,8.20
2019-02-27T10:59:04.606Z,7.60
2019-02-27T11:00:04.800Z,7.90
2019-02-27T11:01:05.002Z,7.80
2019-02-27T11:02:05.202Z,7.80
2019-02-27T11:03:05.400Z,7.40
2019-02-27T11:04:05.600Z,7.50
2019-02-27T11:05:05.801Z,8.00
2019-02-27T11:06:06.001Z,8.00
2019-02-27T11:07:06.204Z,7.70
2019-02-27T11:08:06.400Z,7.50
2019-02-27T11:09:06.602Z,7.70
2019-02-27T11:10:06.804Z,7.70
2019-02-27T11:11:08.637Z,7.60
2019-02-27T11:12:07.214Z,7.80
2019-02-27T11:13:07.423Z,7.80
2019-02-27T11:14:07.621Z,7.70
2019-02-27T11:15:08.219Z,7.60
2019-02-27T11:16:08.027Z,7.70
2019-02-27T11:17:08.229Z,7.60
2019-02-27T11:18:08.427Z,7.40
2019-02-27T11:19:08.623Z,8.10
2019-02-27T11:20:08.824Z,8.10
2019-02-27T11:21:09.020Z,7.80
2019-02-27T11:22:09.237Z,8.70
2019-02-27T11:23:09.420Z,8.00
2019-02-27T11:24:09.625Z,7.60
2019-02-27T11:25:09.830Z,7.40
2019-02-27T11:26:10.026Z,7.60
2019-02-27T11:27:10.246Z,7.60
2019-02-27T11:28:10.445Z,7.60
2019-02-27T11:29:10.647Z,8.20
2019-02-27T11:30:10.843Z,7.60
2019-02-27T11:31:11.627Z,7.80
2019-02-27T11:32:11.234Z,7.30
2019-02-27T11:33:11.435Z,7.40
2019-02-27T11:34:11.637Z,7.60
2019-02-27T11:35:11.833Z,7.90
2019-02-27T11:36:12.033Z,7.20
2019-02-27T11:37:13.886Z,7.70
2019-02-27T11:38:12.428Z,7.90
2019-02-27T11:39:12.627Z,8.10
2019-02-27T11:40:12.821Z,6.90
2019-02-27T11:41:15.356Z,7.30
2019-02-27T11:42:13.254Z,7.20
2019-02-27T11:43:13.453Z,7.40
2019-02-27T11:44:14.300Z,7.30
2019-02-27T11:45:13.854Z,7.40
2019-02-27T11:46:14.070Z,8.00
2019-02-27T11:47:14.266Z,7.70
2019-02-27T11:48:14.464Z,7.60
2019-02-27T11:49:14.666Z,6.80
2019-02-27T11:50:17.835Z,6.90
2019-02-27T11:51:17.498Z,7.10
2019-02-27T11:52:15.271Z,7.50
2019-02-27T11:53:15.475Z,7.80
2019-02-27T11:54:15.672Z,7.90
2019-02-27T11:55:15.883Z,7.70
2019-02-27T11:56:16.075Z,7.90
2019-02-27T11:57:16.273Z,7.50
2019-02-27T11:58:16.473Z,7.10
2019-02-27T11:59:16.666Z,7.70
2019-02-27T12:00:17.906Z,6.50
2019-02-27T12:01:21.849Z,7.60
2019-02-27T12:02:17.285Z,7.10
2019-02-27T12:03:17.484Z,6.80
2019-02-27T12:04:19.504Z,7.20
2019-02-27T12:05:17.900Z,7.40
2019-02-27T12:06:18.107Z,7.10
2019-02-27T12:07:18.305Z,7.00
2019-02-27T12:08:18.505Z,7.20
2019-02-27T12:09:18.702Z,7.10
2019-02-27T12:10:18.922Z,7.20
2019-02-27T12:11:19.106Z,6.60
2019-02-27T12:12:22.512Z,6.30
2019-02-27T12:13:19.512Z,7.20
2019-02-27T12:14:19.709Z,6.20
2019-02-27T12:15:19.919Z,7.30
2019-02-27T12:16:20.105Z,7.00
2019-02-27T12:17:20.387Z,7.20
2019-02-27T12:18:20.452Z,7.50
2019-02-27T12:19:20.650Z,7.00
2019-02-27T12:20:20.853Z,7.10
2019-02-27T12:21:21.047Z,7.10
2019-02-27T12:22:21.249Z,7.20
2019-02-27T12:23:21.443Z,6.50
2019-02-27T12:24:21.655Z,7.00
2019-02-27T12:25:26.934Z,7.60
2019-02-27T12:26:22.044Z,8.10
2019-02-27T12:27:45.082Z,7.50
2019-02-27T12:28:22.443Z,7.80
2019-02-27T12:29:24.167Z,7.30
2019-02-27T12:30:22.843Z,7.10
2019-02-27T12:31:23.041Z,6.60
2019-02-27T12:32:23.244Z,7.60
2019-02-27T12:33:23.439Z,7.60
2019-02-27T12:34:25.155Z,7.60
2019-02-27T12:35:23.839Z,7.40
2019-02-27T12:36:24.033Z,6.90
2019-02-27T12:37:28.436Z,7.40
2019-02-27T12:38:24.434Z,7.40
2019-02-27T12:39:24.640Z,7.00
2019-02-27T12:40:25.223Z,7.20
2019-02-27T12:41:25.034Z,7.90
2019-02-27T12:42:25.235Z,7.20
2019-02-27T12:43:25.434Z,7.50
2019-02-27T12:44:25.634Z,7.30
2019-02-27T12:45:26.731Z,7.40
2019-02-27T12:46:26.033Z,8.20
2019-02-27T12:47:26.246Z,7.90
2019-02-27T12:48:26.449Z,7.80
2019-02-27T12:49:26.647Z,7.80
2019-02-27T12:50:30.838Z,8.60
2019-02-27T12:51:27.035Z,8.00
2019-02-27T12:52:27.235Z,8.10
2019-02-27T12:53:27.430Z,8.00
2019-02-27T12:54:27.631Z,8.50
2019-02-27T12:55:27.827Z,8.30
2019-02-27T12:56:28.025Z,8.20
2019-02-27T12:57:28.220Z,8.30
2019-02-27T12:58:28.424Z,7.80
2019-02-27T12:59:30.764Z,8.70
2019-02-27T13:00:28.831Z,8.20
2019-02-27T13:01:29.029Z,8.60
2019-02-27T13:02:35.633Z,8.20
2019-02-27T13:03:29.428Z,8.10
2019-02-27T13:04:29.629Z,8.60
2019-02-27T13:05:29.822Z,7.80
2019-02-27T13:06:34.383Z,7.50
2019-02-27T13:07:30.217Z,8.10
2019-02-27T13:08:30.417Z,9.40
2019-02-27T13:09:30.614Z,9.10
2019-02-27T13:10:34.075Z,8.80
2019-02-27T13:11:31.003Z,9.40
2019-02-27T13:12:31.203Z,9.10
2019-02-27T13:13:31.398Z,9.70
2019-02-27T13:14:33.278Z,9.50
2019-02-27T13:15:31.790Z,8.80
2019-02-27T13:16:31.990Z,10.10
2019-02-27T13:17:32.179Z,8.50
2019-02-27T13:18:32.736Z,8.70
2019-02-27T13:19:32.571Z,8.50
2019-02-27T13:20:32.765Z,8.80
2019-02-27T13:21:32.964Z,8.50
2019-02-27T13:22:33.161Z,7.80
2019-02-27T13:23:33.355Z,8.30
2019-02-27T13:24:33.551Z,9.00
2019-02-27T13:25:33.745Z,8.30